createdAt,value
2023-11-22T00:00:23.337Z,3.90
2023-11-22T00:03:09.965Z,2.42
2023-11-22T00:05:55.461Z,2.70
2023-11-22T00:08:41.492Z,2.60
2023-11-22T00:11:27.195Z,2.20
2023-11-22T00:14:12.751Z,2.10
2023-11-22T00:16:58.530Z,2.15
2023-11-22T00:19:46.976Z,2.45
2023-11-22T00:22:36.429Z,2.17
2023-11-22T00:25:21.835Z,3.08
2023-11-22T00:28:07.858Z,2.78
2023-11-22T00:30:54.692Z,3.08
2023-11-22T00:33:40.204Z,2.47
2023-11-22T00:36:25.830Z,2.50
2023-11-22T00:39:14.117Z,2.35
2023-11-22T00:41:59.852Z,1.90
2023-11-22T00:44:45.154Z,2.85
2023-11-22T00:47:30.866Z,2.50
2023-11-22T00:50:20.823Z,2.70
2023-11-22T00:53:06.175Z,2.65
2023-11-22T00:55:51.707Z,2.72
2023-11-22T00:58:37.324Z,2.13
2023-11-22T01:01:23.279Z,2.30
2023-11-22T01:04:09.149Z,3.38
2023-11-22T01:06:54.379Z,1.98
2023-11-22T01:09:40.006Z,2.72
2023-11-22T01:12:25.235Z,2.67
2023-11-22T01:15:11.085Z,4.13
2023-11-22T01:17:56.520Z,2.53
2023-11-22T01:20:41.858Z,2.50
2023-11-22T01:23:29.224Z,3.25
2023-11-22T01:26:14.777Z,2.40
2023-11-22T01:29:03.432Z,3.08
2023-11-22T01:31:48.814Z,3.75
2023-11-22T01:34:34.340Z,3.88
2023-11-22T01:37:19.783Z,3.60
2023-11-22T01:40:06.072Z,3.10
2023-11-22T01:42:51.444Z,3.72
2023-11-22T01:45:36.815Z,3.25
2023-11-22T01:48:23.004Z,3.15
2023-11-22T01:51:09.833Z,2.65
2023-11-22T01:53:58.710Z,2.70
2023-11-22T01:56:45.297Z,2.80
2023-11-22T01:59:32.789Z,3.25
2023-11-22T02:02:18.895Z,3.63
2023-11-22T02:05:04.860Z,3.30
2023-11-22T02:07:50.213Z,3.67
2023-11-22T02:10:37.662Z,4.47
2023-11-22T02:13:23.422Z,4.25
2023-11-22T02:16:09.048Z,3.45
2023-11-22T02:18:54.500Z,5.43
2023-11-22T02:21:40.051Z,3.65
2023-11-22T02:24:25.646Z,3.72
2023-11-22T02:27:12.236Z,3.25
2023-11-22T02:29:57.596Z,3.58
2023-11-22T02:32:44.207Z,5.13
2023-11-22T02:35:29.517Z,4.18
2023-11-22T02:38:15.787Z,3.17
2023-11-22T02:41:01.081Z,4.97
2023-11-22T02:43:47.467Z,3.88
2023-11-22T02:46:34.113Z,5.28
2023-11-22T02:49:21.065Z,3.72
2023-11-22T02:52:07.181Z,3.90
2023-11-22T02:54:52.450Z,3.50
2023-11-22T02:57:38.920Z,4.05
2023-11-22T03:00:25.351Z,3.72
2023-11-22T03:03:11.746Z,5.20
2023-11-22T03:05:57.360Z,4.00
2023-11-22T03:08:43.721Z,3.47
2023-11-22T03:11:29.428Z,3.83
2023-11-22T03:14:14.943Z,4.60
2023-11-22T03:17:00.597Z,4.05
2023-11-22T03:19:47.456Z,4.68
2023-11-22T03:22:32.585Z,5.25
2023-11-22T03:25:19.106Z,3.22
2023-11-22T03:28:05.001Z,3.80
2023-11-22T03:30:51.188Z,3.60
2023-11-22T03:33:36.613Z,4.20
2023-11-22T03:36:24.093Z,3.90
2023-11-22T03:39:11.370Z,4.22
2023-11-22T03:41:56.966Z,3.65
2023-11-22T03:44:42.311Z,3.67
2023-11-22T03:47:28.221Z,4.07
2023-11-22T03:50:15.914Z,3.42
2023-11-22T03:53:01.556Z,2.80
2023-11-22T03:55:47.300Z,3.40
2023-11-22T03:58:32.834Z,3.55
2023-11-22T04:01:19.908Z,2.60
2023-11-22T04:04:05.576Z,3.30
2023-11-22T04:06:51.414Z,3.30
2023-11-22T04:09:36.963Z,3.88
2023-11-22T04:12:22.473Z,3.15
2023-11-22T04:15:11.200Z,3.33
2023-11-22T04:17:57.347Z,2.80
2023-11-22T04:20:43.569Z,3.10
2023-11-22T04:23:29.058Z,3.47
2023-11-22T04:26:14.832Z,3.17
2023-11-22T04:29:00.341Z,2.95
2023-11-22T04:31:45.776Z,3.33
2023-11-22T04:34:31.670Z,3.15
2023-11-22T04:37:17.048Z,4.80
2023-11-22T04:40:04.748Z,3.67
2023-11-22T04:42:50.031Z,3.00
2023-11-22T04:45:35.862Z,4.13
2023-11-22T04:48:21.514Z,3.15
2023-11-22T04:51:06.965Z,3.65
2023-11-22T04:53:52.756Z,3.33
2023-11-22T04:56:38.504Z,3.53
2023-11-22T04:59:24.024Z,3.92
2023-11-22T05:02:09.616Z,3.00
2023-11-22T05:04:55.004Z,3.83
2023-11-22T05:07:41.001Z,3.38
2023-11-22T05:10:26.348Z,3.38
2023-11-22T05:13:11.930Z,4.18
2023-11-22T05:15:57.850Z,4.68
2023-11-22T05:18:43.423Z,5.22
2023-11-22T05:21:29.187Z,3.40
2023-11-22T05:24:16.311Z,4.60
2023-11-22T05:27:02.372Z,3.88
2023-11-22T05:29:53.158Z,3.83
2023-11-22T05:32:40.902Z,3.63
2023-11-22T05:35:26.545Z,3.60
2023-11-22T05:38:12.094Z,3.67
2023-11-22T05:40:57.540Z,4.57
2023-11-22T05:43:43.958Z,4.32
2023-11-22T05:46:29.328Z,4.97
2023-11-22T05:49:15.000Z,4.82
2023-11-22T05:52:00.667Z,3.92
2023-11-22T05:54:46.419Z,3.88
2023-11-22T05:57:32.243Z,3.88
2023-11-22T06:00:17.694Z,3.55
2023-11-22T06:03:03.378Z,4.40
2023-11-22T06:05:48.835Z,4.43
2023-11-22T06:08:35.031Z,4.30
2023-11-22T06:11:21.141Z,5.07
2023-11-22T06:14:06.817Z,5.95
2023-11-22T06:16:52.495Z,4.00
2023-11-22T06:19:38.107Z,4.80
2023-11-22T06:22:23.576Z,4.80
2023-11-22T06:25:13.318Z,5.03
2023-11-22T06:27:59.873Z,5.75
2023-11-22T06:30:47.042Z,5.72
2023-11-22T06:33:32.727Z,4.72
2023-11-22T06:36:19.516Z,5.63
2023-11-22T06:39:06.413Z,5.93
2023-11-22T06:41:52.038Z,5.60
2023-11-22T06:44:38.244Z,5.25
2023-11-22T06:47:23.967Z,5.57
2023-11-22T06:50:10.683Z,8.13
2023-11-22T06:52:56.519Z,4.75
2023-11-22T06:55:42.262Z,5.63
2023-11-22T06:58:27.554Z,6.00
2023-11-22T07:01:15.686Z,4.72
2023-11-22T07:04:05.071Z,6.70
2023-11-22T07:06:51.038Z,5.35
2023-11-22T07:09:37.706Z,6.18
2023-11-22T07:12:23.518Z,6.93
2023-11-22T07:15:10.784Z,5.90
2023-11-22T07:17:56.359Z,5.43
2023-11-22T07:20:41.672Z,6.35
2023-11-22T07:23:30.230Z,5.38
2023-11-22T07:26:16.405Z,6.28
2023-11-22T07:29:01.888Z,5.88
2023-11-22T07:31:47.215Z,5.90
2023-11-22T07:34:32.623Z,7.50
2023-11-22T07:37:19.316Z,7.35
2023-11-22T07:40:05.229Z,7.93
2023-11-22T07:42:51.068Z,6.07
2023-11-22T07:45:36.316Z,6.90
2023-11-22T07:48:21.913Z,6.50
2023-11-22T07:51:07.988Z,6.38
2023-11-22T07:53:54.073Z,6.45
2023-11-22T07:56:39.487Z,6.55
2023-11-22T07:59:25.162Z,6.55
2023-11-22T08:02:13.019Z,6.88
2023-11-22T08:04:59.208Z,8.00
2023-11-22T08:07:48.611Z,7.50
2023-11-22T08:10:36.632Z,6.22
2023-11-22T08:13:25.086Z,6.10
2023-11-22T08:16:11.002Z,6.82
2023-11-22T08:18:57.775Z,6.93
2023-11-22T08:21:43.393Z,6.93
2023-11-22T08:24:28.805Z,7.15
2023-11-22T08:27:17.367Z,7.97
2023-11-22T08:30:06.298Z,8.35
2023-11-22T08:32:55.757Z,8.25
2023-11-22T08:35:42.130Z,7.75
2023-11-22T08:38:27.813Z,8.13
2023-11-22T08:41:15.343Z,7.65
2023-11-22T08:44:01.288Z,8.45
2023-11-22T08:46:48.265Z,7.45
2023-11-22T08:49:35.278Z,8.45
2023-11-22T08:52:21.174Z,7.13
2023-11-22T08:55:09.833Z,6.85
2023-11-22T08:57:55.786Z,7.35
2023-11-22T09:00:42.792Z,5.97
2023-11-22T09:03:29.052Z,6.57
2023-11-22T09:06:14.840Z,4.75
2023-11-22T09:09:00.416Z,5.85
2023-11-22T09:11:46.944Z,6.15
2023-11-22T09:14:32.600Z,5.75
2023-11-22T09:17:18.115Z,6.78
2023-11-22T09:20:04.438Z,6.30
2023-11-22T09:22:52.194Z,5.00
2023-11-22T09:25:37.767Z,5.88
2023-11-22T09:28:23.481Z,5.55
2023-11-22T09:31:09.052Z,4.78
2023-11-22T09:33:54.364Z,4.13
2023-11-22T09:36:40.600Z,4.05
2023-11-22T09:39:26.280Z,3.90
2023-11-22T09:42:14.181Z,2.90
2023-11-22T09:44:59.746Z,2.90
2023-11-22T09:47:46.422Z,2.35
2023-11-22T09:50:44.142Z,3.28
2023-11-22T09:53:34.857Z,2.50
2023-11-22T09:56:21.513Z,2.17
2023-11-22T09:59:08.527Z,1.73
2023-11-22T10:01:55.317Z,2.45
2023-11-22T10:04:41.955Z,1.98
2023-11-22T10:07:27.465Z,2.15
2023-11-22T10:10:16.038Z,1.80
2023-11-22T10:13:02.364Z,1.48
2023-11-22T10:15:49.084Z,1.80
2023-11-22T10:18:36.058Z,1.95
2023-11-22T10:21:31.832Z,3.03
2023-11-22T10:24:22.513Z,2.22
2023-11-22T10:27:08.508Z,3.95
2023-11-22T10:29:53.801Z,2.72
2023-11-22T10:32:40.511Z,2.00
2023-11-22T10:35:26.460Z,2.38
2023-11-22T10:38:14.696Z,2.20
2023-11-22T10:41:02.723Z,1.98
2023-11-22T10:43:49.207Z,2.53
2023-11-22T10:46:35.421Z,2.33
2023-11-22T10:49:22.494Z,1.92
2023-11-22T10:52:11.904Z,1.88
2023-11-22T10:55:03.767Z,1.75
2023-11-22T10:57:56.510Z,1.70
2023-11-22T11:00:45.230Z,1.35
2023-11-22T11:03:39.818Z,1.98
2023-11-22T11:06:33.164Z,2.20
2023-11-22T11:09:22.675Z,1.42
2023-11-22T11:12:09.414Z,1.50
2023-11-22T11:14:55.827Z,1.70
2023-11-22T11:17:41.972Z,2.83
2023-11-22T11:20:33.076Z,1.38
2023-11-22T11:23:21.640Z,1.90
2023-11-22T11:26:24.352Z,1.42
2023-11-22T11:29:34.002Z,1.80
2023-11-22T11:32:46.583Z,1.23
2023-11-22T11:35:49.880Z,2.22
2023-11-22T11:38:38.918Z,1.80
2023-11-22T11:41:38.365Z,1.98
2023-11-22T11:44:25.259Z,2.25
2023-11-22T11:47:12.135Z,1.45
2023-11-22T11:49:57.998Z,2.03
2023-11-22T11:52:43.564Z,1.25
2023-11-22T11:55:29.208Z,3.00
2023-11-22T11:58:19.632Z,1.70
2023-11-22T12:01:06.700Z,1.52
2023-11-22T12:03:54.074Z,2.70
2023-11-22T12:06:41.016Z,1.60
2023-11-22T12:09:28.694Z,1.80
2023-11-22T12:12:14.453Z,1.75
2023-11-22T12:15:00.431Z,1.40
2023-11-22T12:17:46.555Z,1.65
2023-11-22T12:20:35.031Z,1.45
2023-11-22T12:23:21.417Z,1.58
2023-11-22T12:26:12.843Z,1.90
2023-11-22T12:29:04.146Z,1.90
2023-11-22T12:31:54.088Z,1.88
2023-11-22T12:34:40.646Z,1.42
2023-11-22T12:37:28.574Z,1.90
2023-11-22T12:40:14.577Z,1.30
2023-11-22T12:43:00.664Z,1.50
2023-11-22T12:45:47.929Z,1.40
2023-11-22T12:48:34.188Z,2.42
2023-11-22T12:51:27.759Z,3.70
2023-11-22T12:54:13.783Z,3.50
2023-11-22T12:57:00.423Z,3.13
2023-11-22T12:59:46.258Z,2.40
2023-11-22T13:02:34.111Z,2.03
2023-11-22T13:05:21.190Z,2.60
2023-11-22T13:08:07.034Z,2.17
2023-11-22T13:10:57.556Z,3.63
2023-11-22T13:13:43.343Z,3.13
2023-11-22T13:16:28.926Z,2.20
2023-11-22T13:19:14.680Z,2.42
2023-11-22T13:22:00.541Z,2.72
2023-11-22T13:24:46.146Z,2.65
2023-11-22T13:27:31.908Z,3.40
2023-11-22T13:30:20.776Z,3.33
2023-11-22T13:33:06.923Z,3.50
2023-11-22T13:35:53.866Z,2.90
2023-11-22T13:38:40.759Z,2.55
2023-11-22T13:41:27.075Z,2.45
2023-11-22T13:44:12.561Z,2.70
2023-11-22T13:46:58.962Z,1.98
2023-11-22T13:49:44.879Z,2.17
2023-11-22T13:52:30.376Z,2.08
2023-11-22T13:55:18.933Z,2.65
2023-11-22T13:58:06.310Z,2.67
2023-11-22T14:00:55.447Z,3.60
2023-11-22T14:03:41.375Z,3.35
2023-11-22T14:06:27.226Z,2.63
2023-11-22T14:09:14.105Z,3.05
2023-11-22T14:11:59.634Z,2.85
2023-11-22T14:14:44.997Z,3.63
2023-11-22T14:17:30.716Z,2.58
2023-11-22T14:20:17.951Z,3.28
2023-11-22T14:23:03.448Z,2.97
2023-11-22T14:25:49.164Z,2.83
2023-11-22T14:28:35.245Z,2.92
2023-11-22T14:31:20.835Z,3.22
2023-11-22T14:34:06.686Z,2.78
2023-11-22T14:36:52.240Z,2.45
2023-11-22T14:39:38.192Z,2.97
2023-11-22T14:42:25.938Z,3.72
2023-11-22T14:45:12.778Z,2.80
2023-11-22T14:47:59.064Z,2.67
2023-11-22T14:50:45.048Z,3.72
2023-11-22T14:53:32.147Z,3.30
2023-11-22T14:56:19.059Z,3.47
2023-11-22T14:59:04.540Z,3.05
2023-11-22T15:01:50.184Z,3.13
2023-11-22T15:04:37.745Z,3.63
2023-11-22T15:07:23.504Z,4.18
2023-11-22T15:10:10.926Z,3.00
2023-11-22T15:12:57.066Z,3.05
2023-11-22T15:15:42.851Z,3.00
2023-11-22T15:18:28.827Z,3.33
2023-11-22T15:21:15.019Z,2.75
2023-11-22T15:24:00.708Z,3.10
2023-11-22T15:26:46.571Z,3.20
2023-11-22T15:29:33.268Z,3.80
2023-11-22T15:32:18.974Z,4.45
2023-11-22T15:35:06.678Z,4.35
2023-11-22T15:37:52.206Z,3.40
2023-11-22T15:40:37.727Z,2.83
2023-11-22T15:43:23.376Z,3.13
2023-11-22T15:46:11.944Z,4.35
2023-11-22T15:48:57.263Z,2.92
2023-11-22T15:51:42.913Z,4.72
2023-11-22T15:54:28.580Z,5.25
2023-11-22T15:57:14.801Z,5.00
2023-11-22T16:00:00.510Z,4.90
2023-11-22T16:02:46.069Z,3.90
2023-11-22T16:05:32.467Z,3.97
2023-11-22T16:08:17.891Z,4.65
2023-11-22T16:11:03.497Z,3.88
2023-11-22T16:13:49.274Z,4.05
2023-11-22T16:16:35.097Z,4.20
2023-11-22T16:19:20.572Z,4.68
2023-11-22T16:22:06.359Z,4.05
2023-11-22T16:24:53.279Z,4.00
2023-11-22T16:27:39.161Z,3.90
2023-11-22T16:30:24.771Z,4.97
2023-11-22T16:33:11.236Z,4.20
2023-11-22T16:35:56.915Z,3.70
2023-11-22T16:38:42.467Z,3.70
2023-11-22T16:41:28.263Z,4.05
2023-11-22T16:44:13.580Z,4.03
2023-11-22T16:46:59.968Z,4.35
2023-11-22T16:49:47.483Z,4.10
2023-11-22T16:52:33.987Z,3.47
2023-11-22T16:55:19.752Z,4.00
2023-11-22T16:58:05.747Z,3.53
2023-11-22T17:00:52.387Z,3.75
2023-11-22T17:03:37.943Z,3.80
2023-11-22T17:06:25.517Z,4.00
2023-11-22T17:11:58.671Z,3.72
2023-11-22T17:14:47.459Z,4.82
2023-11-22T17:17:33.362Z,4.05
2023-11-22T17:20:18.953Z,4.18
2023-11-22T17:23:04.833Z,5.30
2023-11-22T17:25:50.198Z,4.07
2023-11-22T17:28:35.678Z,4.25
2023-11-22T17:31:21.630Z,4.00
2023-11-22T17:34:07.262Z,3.72
2023-11-22T17:36:53.010Z,4.55
2023-11-22T17:39:38.798Z,4.40
2023-11-22T17:42:25.851Z,4.57
2023-11-22T17:45:14.121Z,4.90
2023-11-22T17:48:01.201Z,6.70
2023-11-22T17:50:47.087Z,4.70
2023-11-22T17:53:32.719Z,4.93
2023-11-22T17:56:18.523Z,5.32
2023-11-22T17:59:04.343Z,4.78
2023-11-22T18:01:50.093Z,5.30
2023-11-22T18:04:40.013Z,4.35
2023-11-22T18:07:27.072Z,5.30
2023-11-22T18:10:13.602Z,5.85
2023-11-22T18:12:59.213Z,6.45
2023-11-22T18:15:44.887Z,5.50
2023-11-22T18:18:31.417Z,5.30
2023-11-22T18:21:17.161Z,5.18
2023-11-22T18:24:04.491Z,6.13
2023-11-22T18:26:49.983Z,5.53
2023-11-22T18:29:35.668Z,4.80
2023-11-22T18:32:26.588Z,4.82
2023-11-22T18:35:16.384Z,4.85
2023-11-22T18:38:02.277Z,4.60
2023-11-22T18:40:47.540Z,4.95
2023-11-22T18:43:33.172Z,4.85
2023-11-22T18:46:18.828Z,5.00
2023-11-22T18:49:04.631Z,5.00
2023-11-22T18:51:53.194Z,4.65
2023-11-22T18:54:38.700Z,4.88
2023-11-22T18:57:24.322Z,4.15
2023-11-22T19:00:11.968Z,4.55
2023-11-22T19:02:57.513Z,4.20
2023-11-22T19:05:44.638Z,4.50
2023-11-22T19:08:30.077Z,3.97
2023-11-22T19:11:15.497Z,4.80
2023-11-22T19:14:00.990Z,4.95
2023-11-22T19:16:47.072Z,4.47
2023-11-22T19:19:32.885Z,4.40
2023-11-22T19:22:18.403Z,4.97
2023-11-22T19:25:05.576Z,4.78
2023-11-22T19:27:50.973Z,3.92
2023-11-22T19:30:36.774Z,3.85
2023-11-22T19:33:22.741Z,3.97
2023-11-22T19:36:08.874Z,4.20
2023-11-22T19:38:55.357Z,5.25
2023-11-22T19:41:41.619Z,3.97
2023-11-22T19:44:27.347Z,5.25
2023-11-22T19:47:15.443Z,5.30
2023-11-22T19:50:01.846Z,4.32
2023-11-22T19:52:47.296Z,5.13
2023-11-22T19:55:32.799Z,5.15
2023-11-22T19:58:18.605Z,4.55
2023-11-22T20:01:04.281Z,4.78
2023-11-22T20:03:49.868Z,4.95
2023-11-22T20:06:35.498Z,6.43
2023-11-22T20:09:21.155Z,5.70
2023-11-22T20:12:07.340Z,6.90
2023-11-22T20:14:53.177Z,5.43
2023-11-22T20:17:38.596Z,5.72
2023-11-22T20:20:26.167Z,5.80
2023-11-22T20:23:17.342Z,6.35
2023-11-22T20:26:04.436Z,5.88
2023-11-22T20:28:49.808Z,6.43
2023-11-22T20:31:35.652Z,7.80
2023-11-22T20:34:21.155Z,7.88
2023-11-22T20:37:06.731Z,7.05
2023-11-22T20:39:52.793Z,6.88
2023-11-22T20:42:38.289Z,7.68
2023-11-22T20:45:24.015Z,7.38
2023-11-22T20:48:11.650Z,8.07
2023-11-22T20:51:02.868Z,7.97
2023-11-22T20:53:49.353Z,8.65
2023-11-22T20:56:35.532Z,7.40
2023-11-22T20:59:31.034Z,7.68
2023-11-22T21:02:19.154Z,7.35
2023-11-22T21:05:08.668Z,7.38
2023-11-22T21:07:54.432Z,8.27
2023-11-22T21:10:42.857Z,7.13
2023-11-22T21:13:31.509Z,9.40
2023-11-22T21:16:22.269Z,11.40
2023-11-22T21:19:09.475Z,13.68
2023-11-22T21:21:55.304Z,15.27
2023-11-22T21:24:40.769Z,15.43
2023-11-22T21:27:27.588Z,14.90
2023-11-22T21:30:14.019Z,11.98
2023-11-22T21:33:00.010Z,12.15
2023-11-22T21:35:45.832Z,11.25
2023-11-22T21:38:31.522Z,11.30
2023-11-22T21:41:18.187Z,11.32
2023-11-22T21:44:05.457Z,10.70
2023-11-22T21:46:51.545Z,11.02
2023-11-22T21:49:43.870Z,9.43
2023-11-22T21:52:29.382Z,9.15
2023-11-22T21:55:16.374Z,8.50
2023-11-22T21:58:02.130Z,7.40
2023-11-22T22:00:51.949Z,7.32
2023-11-22T22:03:41.186Z,8.30
2023-11-22T22:06:41.696Z,7.63
2023-11-22T22:09:30.185Z,8.07
2023-11-22T22:12:15.872Z,7.88
2023-11-22T22:15:01.720Z,7.15
2023-11-22T22:17:48.013Z,6.55
2023-11-22T22:20:43.100Z,6.75
2023-11-22T22:23:35.831Z,6.72
2023-11-22T22:26:21.709Z,6.30
2023-11-22T22:29:07.595Z,6.90
2023-11-22T22:31:54.319Z,6.28
2023-11-22T22:34:40.216Z,6.65
2023-11-22T22:37:27.673Z,6.53
2023-11-22T22:40:13.768Z,6.13
2023-11-22T22:42:59.107Z,6.95
2023-11-22T22:45:44.688Z,6.03
2023-11-22T22:48:31.032Z,5.50
2023-11-22T22:51:18.558Z,5.60
2023-11-22T22:54:04.732Z,6.10
2023-11-22T22:56:50.277Z,5.53
2023-11-22T22:59:36.722Z,6.00
2023-11-22T23:02:22.054Z,5.30
2023-11-22T23:05:16.005Z,5.78
2023-11-22T23:08:07.131Z,6.25
2023-11-22T23:10:52.513Z,5.50
2023-11-22T23:13:38.166Z,5.57
2023-11-22T23:16:23.967Z,5.85
2023-11-22T23:19:13.739Z,5.07
2023-11-22T23:22:02.730Z,5.65
2023-11-22T23:24:48.261Z,5.78
2023-11-22T23:27:35.340Z,5.80
2023-11-22T23:30:21.807Z,6.57
2023-11-22T23:33:08.572Z,5.53
2023-11-22T23:35:54.539Z,5.68
2023-11-22T23:38:40.118Z,5.53
2023-11-22T23:41:26.525Z,5.55
2023-11-22T23:44:12.397Z,5.53
2023-11-22T23:46:58.242Z,5.60
2023-11-22T23:49:44.408Z,5.78
2023-11-22T23:52:29.845Z,6.13
2023-11-22T23:55:15.783Z,6.00
2023-11-22T23:58:01.429Z,6.18
